createdAt,value
2023-05-24T00:01:03.142Z,80.13
2023-05-24T00:03:39.603Z,79.93
2023-05-24T00:06:12.683Z,79.95
2023-05-24T00:08:45.563Z,80.13
2023-05-24T00:11:18.297Z,80.16
2023-05-24T00:13:51.212Z,80.16
2023-05-24T00:16:24.723Z,80.09
2023-05-24T00:18:59.365Z,80.17
2023-05-24T00:21:32.245Z,80.24
2023-05-24T00:24:05.102Z,80.09
2023-05-24T00:26:38.009Z,80.13
2023-05-24T00:29:11.000Z,80.62
2023-05-24T00:31:43.844Z,80.04
2023-05-24T00:34:18.641Z,80.46
2023-05-24T00:36:51.640Z,80.41
2023-05-24T00:39:24.465Z,80.57
2023-05-24T00:41:57.327Z,80.37
2023-05-24T00:44:30.669Z,80.41
2023-05-24T00:47:03.475Z,80.39
2023-05-24T00:49:38.282Z,80.71
2023-05-24T00:52:11.446Z,80.75
2023-05-24T00:54:44.624Z,80.91
2023-05-24T00:57:19.376Z,80.93
2023-05-24T00:59:52.575Z,81.05
2023-05-24T01:02:26.108Z,80.85
2023-05-24T01:05:00.563Z,80.91
2023-05-24T01:07:39.517Z,81.14
2023-05-24T01:10:16.921Z,81.15
2023-05-24T01:12:54.919Z,81.25
2023-05-24T01:15:31.969Z,81.23
2023-05-24T01:18:07.981Z,81.50
2023-05-24T01:20:43.638Z,81.41
2023-05-24T01:23:20.874Z,81.60
2023-05-24T01:26:10.671Z,81.46
2023-05-24T01:28:45.484Z,81.65
2023-05-24T01:31:19.497Z,81.66
2023-05-24T01:33:52.808Z,81.65
2023-05-24T01:36:25.654Z,81.46
2023-05-24T01:38:58.602Z,81.49
2023-05-24T01:41:38.052Z,81.53
2023-05-24T01:44:17.056Z,81.10
2023-05-24T01:46:55.299Z,80.90
2023-05-24T01:49:31.546Z,80.57
2023-05-24T01:52:06.713Z,80.39
2023-05-24T01:54:40.826Z,80.07
2023-05-24T01:57:14.292Z,80.18
2023-05-24T01:59:49.131Z,80.18
2023-05-24T02:02:21.939Z,80.02
2023-05-24T02:04:55.410Z,80.04
2023-05-24T02:07:28.491Z,79.87
2023-05-24T02:10:01.250Z,79.80
2023-05-24T02:12:34.137Z,79.71
2023-05-24T02:15:09.368Z,80.11
2023-05-24T02:17:42.925Z,80.08
2023-05-24T02:20:17.541Z,80.23
2023-05-24T02:22:50.633Z,80.31
2023-05-24T02:25:23.638Z,80.34
2023-05-24T02:27:56.698Z,80.17
2023-05-24T02:30:30.843Z,80.14
2023-05-24T02:33:03.720Z,80.05
2023-05-24T02:35:36.587Z,79.63
2023-05-24T02:38:10.350Z,79.62
2023-05-24T02:40:43.339Z,79.21
2023-05-24T02:43:16.314Z,79.19
2023-05-24T02:45:51.441Z,79.20
2023-05-24T02:48:24.503Z,79.34
2023-05-24T02:50:57.631Z,79.79
2023-05-24T02:53:31.752Z,79.98
2023-05-24T02:56:04.686Z,80.13
2023-05-24T02:58:40.604Z,80.16
2023-05-24T03:01:15.598Z,80.48
2023-05-24T03:03:48.782Z,80.64
2023-05-24T03:06:24.113Z,80.64
2023-05-24T03:08:57.079Z,80.59
2023-05-24T03:11:29.953Z,81.05
2023-05-24T03:14:02.702Z,80.86
2023-05-24T03:16:37.519Z,80.92
2023-05-24T03:19:10.626Z,81.14
2023-05-24T03:21:43.752Z,80.77
2023-05-24T03:24:16.694Z,80.93
2023-05-24T03:26:50.051Z,81.08
2023-05-24T03:29:23.470Z,81.14
2023-05-24T03:31:58.103Z,81.16
2023-05-24T03:34:32.037Z,81.30
2023-05-24T03:37:05.805Z,81.50
2023-05-24T03:39:39.133Z,81.58
2023-05-24T03:42:12.051Z,81.46
2023-05-24T03:44:45.205Z,81.39
2023-05-24T03:47:19.583Z,81.69
2023-05-24T03:49:52.485Z,82.04
2023-05-24T03:52:25.795Z,82.34
2023-05-24T03:54:58.958Z,82.06
2023-05-24T03:57:32.656Z,82.01
2023-05-24T04:00:07.230Z,82.13
2023-05-24T04:02:44.199Z,82.29
2023-05-24T04:05:17.110Z,82.11
2023-05-24T04:07:50.246Z,82.26
2023-05-24T04:10:24.221Z,82.10
2023-05-24T04:12:57.833Z,82.43
2023-05-24T04:15:31.126Z,82.18
2023-05-24T04:18:05.543Z,82.53
2023-05-24T04:20:38.768Z,82.32
2023-05-24T04:23:13.237Z,82.43
2023-05-24T04:25:46.229Z,82.49
2023-05-24T04:28:19.015Z,82.58
2023-05-24T04:30:52.401Z,82.56
2023-05-24T04:33:27.963Z,82.35
2023-05-24T04:36:02.259Z,81.90
2023-05-24T04:38:36.499Z,82.29
2023-05-24T04:41:09.568Z,82.31
2023-05-24T04:43:44.006Z,82.30
2023-05-24T04:46:17.324Z,82.69
2023-05-24T04:48:52.037Z,82.98
2023-05-24T04:51:25.317Z,82.97
2023-05-24T04:53:58.136Z,82.99
2023-05-24T04:56:31.335Z,83.00
2023-05-24T04:59:04.682Z,82.81
2023-05-24T05:01:37.566Z,82.96
2023-05-24T05:04:12.196Z,82.98
2023-05-24T05:06:45.411Z,82.78
2023-05-24T05:09:19.529Z,83.04
2023-05-24T05:11:52.467Z,82.90
2023-05-24T05:14:25.633Z,82.40
2023-05-24T05:16:59.528Z,82.81
2023-05-24T05:19:33.808Z,82.57
2023-05-24T05:22:07.178Z,82.50
2023-05-24T05:24:40.324Z,82.41
2023-05-24T05:27:13.205Z,82.01
2023-05-24T05:29:46.083Z,81.77
2023-05-24T05:32:19.335Z,81.74
2023-05-24T05:34:53.699Z,81.54
2023-05-24T05:37:26.531Z,81.55
2023-05-24T05:39:59.571Z,81.22
2023-05-24T05:42:32.665Z,81.30
2023-05-24T05:45:05.920Z,81.86
2023-05-24T05:47:38.759Z,81.56
2023-05-24T05:50:13.114Z,81.57
2023-05-24T05:52:45.985Z,81.74
2023-05-24T05:55:20.897Z,81.92
2023-05-24T05:57:54.142Z,81.88
2023-05-24T06:00:27.242Z,82.19
2023-05-24T06:03:00.752Z,82.16
2023-05-24T06:05:38.045Z,82.25
2023-05-24T06:08:10.922Z,82.33
2023-05-24T06:10:44.646Z,82.60
2023-05-24T06:13:17.712Z,82.40
2023-05-24T06:15:52.898Z,82.50
2023-05-24T06:18:26.808Z,82.45
2023-05-24T06:21:01.726Z,82.46
2023-05-24T06:23:34.628Z,82.89
2023-05-24T06:26:10.209Z,82.86
2023-05-24T06:28:43.832Z,82.79
2023-05-24T06:41:51.490Z,83.54
2023-05-24T06:44:31.437Z,83.41
2023-05-24T06:47:04.563Z,83.82
2023-05-24T06:49:37.310Z,83.58
2023-05-24T06:52:10.557Z,83.64
2023-05-24T06:54:43.737Z,84.01
2023-05-24T06:57:18.187Z,84.14
2023-05-24T06:59:51.017Z,83.82
2023-05-24T07:02:27.969Z,83.37
2023-05-24T07:05:01.121Z,83.59
2023-05-24T07:07:34.068Z,83.44
2023-05-24T07:10:08.744Z,83.70
2023-05-24T07:12:42.998Z,83.61
2023-05-24T07:15:15.996Z,83.89
2023-05-24T07:17:49.467Z,83.62
2023-05-24T07:20:22.446Z,83.63
2023-05-24T07:22:55.734Z,83.73
2023-05-24T07:25:28.876Z,83.95
2023-05-24T07:28:03.094Z,82.59
2023-05-24T07:30:36.210Z,82.43
2023-05-24T07:33:09.289Z,81.85
2023-05-24T07:35:42.620Z,82.20
2023-05-24T07:38:16.240Z,81.95
2023-05-24T07:40:49.230Z,82.27
2023-05-24T07:43:23.587Z,82.19
2023-05-24T07:45:56.510Z,82.69
2023-05-24T07:48:29.504Z,82.38
2023-05-24T07:51:02.210Z,82.13
2023-05-24T07:53:35.941Z,82.12
2023-05-24T07:56:10.075Z,81.67
2023-05-24T07:58:46.877Z,80.96
2023-05-24T08:01:20.205Z,80.76
2023-05-24T08:03:53.498Z,80.68
2023-05-24T08:06:26.650Z,80.90
2023-05-24T08:08:59.417Z,80.61
2023-05-24T08:11:32.413Z,80.63
2023-05-24T08:14:06.475Z,80.98
2023-05-24T08:16:39.406Z,81.15
2023-05-24T08:19:12.579Z,80.99
2023-05-24T08:21:45.456Z,81.02
2023-05-24T08:24:18.350Z,80.93
2023-05-24T08:26:51.925Z,80.91
2023-05-24T08:29:26.338Z,81.05
2023-05-24T08:31:59.093Z,81.03
2023-05-24T08:34:32.010Z,81.18
2023-05-24T08:37:05.284Z,81.08
2023-05-24T08:39:38.144Z,80.48
2023-05-24T08:42:11.090Z,79.82
2023-05-24T08:44:48.428Z,79.02
2023-05-24T08:47:21.671Z,78.91
2023-05-24T08:49:55.088Z,78.64
2023-05-24T08:52:28.879Z,79.47
2023-05-24T08:55:01.789Z,79.31
2023-05-24T08:57:35.867Z,79.46
2023-05-24T09:00:13.215Z,79.51
2023-05-24T09:02:47.230Z,79.21
2023-05-24T09:05:22.280Z,79.36
2023-05-24T09:07:57.048Z,78.65
2023-05-24T09:10:41.258Z,78.44
2023-05-24T09:13:24.045Z,78.08
2023-05-24T09:15:59.034Z,78.86
2023-05-24T09:18:31.819Z,79.31
2023-05-24T09:21:04.659Z,80.00
2023-05-24T09:23:37.800Z,78.65
2023-05-24T09:26:11.607Z,79.86
2023-05-24T09:28:44.628Z,80.34
2023-05-24T09:31:18.888Z,80.58
2023-05-24T09:33:51.684Z,80.56
2023-05-24T09:36:24.566Z,81.48
2023-05-24T09:39:07.422Z,81.01
2023-05-24T09:41:40.817Z,81.36
2023-05-24T09:44:14.579Z,81.62
2023-05-24T09:46:48.834Z,81.36
2023-05-24T09:49:22.406Z,81.19
2023-05-24T09:51:55.699Z,80.61
2023-05-24T09:54:28.699Z,80.38
2023-05-24T09:57:03.435Z,80.61
2023-05-24T09:59:41.050Z,80.86
2023-05-24T10:02:18.548Z,79.87
2023-05-24T10:04:58.584Z,80.22
2023-05-24T10:07:31.784Z,80.16
2023-05-24T10:10:07.501Z,79.99
2023-05-24T10:12:44.096Z,79.81
2023-05-24T10:15:17.221Z,80.06
2023-05-24T10:17:52.096Z,81.17
2023-05-24T10:20:25.118Z,80.59
2023-05-24T10:23:00.923Z,80.69
2023-05-24T10:25:34.496Z,80.97
2023-05-24T10:28:10.080Z,80.11
2023-05-24T10:30:45.450Z,79.76
2023-05-24T10:33:21.216Z,79.49
2023-05-24T10:35:54.138Z,80.66
2023-05-24T10:38:27.041Z,80.19
2023-05-24T10:40:59.902Z,79.79
2023-05-24T10:43:32.816Z,79.00
2023-05-24T10:46:06.150Z,79.77
2023-05-24T10:48:41.409Z,78.25
2023-05-24T10:51:31.085Z,78.99
2023-05-24T10:54:14.243Z,78.92
2023-05-24T10:56:48.094Z,78.25
2023-05-24T10:59:39.369Z,79.10
2023-05-24T11:02:14.155Z,79.85
2023-05-24T11:04:49.568Z,79.59
2023-05-24T11:07:22.644Z,79.84
2023-05-24T11:09:59.838Z,79.88
2023-05-24T11:12:38.683Z,79.97
2023-05-24T11:15:12.227Z,81.52
2023-05-24T11:18:03.523Z,81.70
2023-05-24T11:20:38.018Z,82.00
2023-05-24T11:23:11.632Z,81.38
2023-05-24T11:25:44.553Z,81.08
2023-05-24T11:28:17.812Z,81.55
2023-05-24T11:30:50.820Z,82.07
2023-05-24T11:33:25.086Z,82.03
2023-05-24T11:36:00.085Z,81.60
2023-05-24T11:38:32.876Z,82.15
2023-05-24T11:41:07.558Z,82.09
2023-05-24T11:43:41.401Z,81.09
2023-05-24T11:46:14.195Z,81.63
2023-05-24T11:48:55.729Z,80.73
2023-05-24T11:51:30.450Z,80.28
2023-05-24T11:54:03.193Z,80.56
2023-05-24T11:56:36.055Z,77.89
2023-05-24T11:59:15.660Z,79.21
2023-05-24T12:01:48.440Z,80.13
2023-05-24T12:04:21.300Z,80.43
2023-05-24T12:06:56.334Z,79.79
2023-05-24T12:09:29.455Z,81.00
2023-05-24T12:12:02.530Z,82.32
2023-05-24T12:14:37.444Z,80.61
2023-05-24T12:17:16.135Z,82.42
2023-05-24T12:19:49.953Z,83.13
2023-05-24T12:22:27.984Z,82.83
2023-05-24T12:25:00.680Z,81.84
2023-05-24T12:27:34.800Z,81.47
2023-05-24T12:30:09.974Z,81.75
2023-05-24T12:32:42.693Z,81.99
2023-05-24T12:35:15.497Z,82.53
2023-05-24T12:37:49.829Z,82.64
2023-05-24T12:40:23.688Z,83.13
2023-05-24T12:42:57.980Z,82.92
2023-05-24T12:45:30.670Z,82.65
2023-05-24T12:48:05.100Z,80.71
2023-05-24T12:50:37.903Z,80.91
2023-05-24T12:53:12.054Z,82.21
2023-05-24T12:55:44.833Z,75.46
2023-05-24T12:58:19.900Z,78.05
2023-05-24T13:00:52.694Z,78.70
2023-05-24T13:03:25.551Z,80.88
2023-05-24T13:05:59.499Z,80.19
2023-05-24T13:08:34.060Z,80.00
2023-05-24T13:11:06.909Z,80.67
2023-05-24T13:13:39.727Z,81.16
2023-05-24T13:16:12.558Z,79.94
2023-05-24T13:18:46.424Z,78.63
2023-05-24T13:21:19.190Z,78.28
2023-05-24T13:23:53.316Z,78.60
2023-05-24T13:26:26.030Z,77.41
2023-05-24T13:29:27.861Z,76.66
2023-05-24T13:31:51.765Z,75.71
2023-05-24T13:34:24.760Z,74.64
2023-05-24T13:36:59.954Z,74.72
2023-05-24T13:39:35.402Z,75.48
2023-05-24T13:42:09.106Z,75.57
2023-05-24T13:44:41.930Z,75.43
2023-05-24T13:47:27.159Z,74.53
2023-05-24T13:50:00.731Z,75.22
2023-05-24T13:52:33.868Z,75.05
2023-05-24T13:55:08.978Z,74.93
2023-05-24T13:57:50.413Z,75.64
2023-05-24T14:00:24.719Z,76.15
2023-05-24T14:02:58.077Z,76.05
2023-05-24T14:05:31.344Z,75.96
2023-05-24T14:08:06.768Z,76.03
2023-05-24T14:10:41.340Z,76.76
2023-05-24T14:13:23.181Z,77.28
2023-05-24T14:16:07.243Z,76.24
2023-05-24T14:18:40.033Z,76.65
2023-05-24T14:21:12.906Z,76.89
2023-05-24T14:23:45.692Z,77.48
2023-05-24T14:26:20.481Z,77.72
2023-05-24T14:28:55.950Z,77.50
2023-05-24T14:31:29.683Z,78.42
2023-05-24T14:34:02.786Z,79.49
2023-05-24T14:36:36.013Z,78.32
2023-05-24T14:39:09.156Z,78.29
2023-05-24T14:41:43.357Z,79.03
2023-05-24T14:44:16.037Z,78.72
2023-05-24T14:46:49.028Z,79.09
2023-05-24T14:49:21.658Z,79.86
2023-05-24T14:51:54.424Z,80.69
2023-05-24T14:54:27.402Z,78.99
2023-05-24T14:57:02.524Z,78.97
2023-05-24T14:59:35.279Z,77.85
2023-05-24T15:02:08.283Z,78.44
2023-05-24T15:04:41.083Z,73.20
2023-05-24T15:07:14.150Z,76.43
2023-05-24T15:09:46.911Z,77.48
2023-05-24T15:12:21.041Z,80.08
2023-05-24T15:14:53.827Z,78.72
2023-05-24T15:17:26.669Z,76.86
2023-05-24T15:19:59.876Z,79.48
2023-05-24T15:22:34.014Z,76.34
2023-05-24T15:25:07.413Z,72.99
2023-05-24T15:27:41.609Z,77.04
2023-05-24T15:30:14.556Z,75.98
2023-05-24T15:32:47.697Z,75.51
2023-05-24T15:35:21.066Z,75.83
2023-05-24T15:37:53.970Z,75.97
2023-05-24T15:40:26.827Z,76.07
2023-05-24T15:43:01.047Z,74.44
2023-05-24T15:45:33.892Z,75.79
2023-05-24T15:48:06.846Z,75.96
2023-05-24T15:51:01.803Z,75.14
2023-05-24T15:53:32.578Z,75.24
2023-05-24T15:56:05.414Z,75.58
2023-05-24T15:58:39.580Z,76.03
2023-05-24T16:01:12.453Z,76.22
2023-05-24T16:03:45.312Z,75.60
2023-05-24T16:06:18.172Z,76.12
2023-05-24T16:08:51.273Z,76.48
2023-05-24T16:11:24.146Z,76.95
2023-05-24T16:13:58.867Z,76.84
2023-05-24T16:16:31.701Z,76.12
2023-05-24T16:19:04.540Z,76.14
2023-05-24T16:21:37.311Z,76.25
2023-05-24T16:24:10.277Z,74.96
2023-05-24T16:26:43.036Z,74.14
2023-05-24T16:29:18.844Z,75.15
2023-05-24T16:31:52.052Z,70.29
2023-05-24T16:34:26.135Z,74.79
2023-05-24T16:36:58.831Z,76.69
2023-05-24T16:39:32.699Z,74.64
2023-05-24T16:42:07.213Z,74.87
2023-05-24T16:44:41.304Z,76.26
2023-05-24T16:47:14.057Z,76.07
2023-05-24T16:49:46.814Z,76.62
2023-05-24T16:52:19.506Z,76.63
2023-05-24T16:54:52.376Z,76.96
2023-05-24T16:57:25.094Z,77.82
2023-05-24T16:59:59.220Z,77.61
2023-05-24T17:02:31.986Z,77.59
2023-05-24T17:05:04.917Z,76.62
2023-05-24T17:07:37.908Z,76.93
2023-05-24T17:10:10.848Z,76.97
2023-05-24T17:12:43.590Z,78.17
2023-05-24T17:15:17.931Z,78.81
2023-05-24T17:17:52.717Z,77.29
2023-05-24T17:20:25.806Z,77.07
2023-05-24T17:22:58.529Z,76.36
2023-05-24T17:25:31.355Z,77.00
2023-05-24T17:28:04.440Z,76.27
2023-05-24T17:30:38.518Z,76.82
2023-05-24T17:33:11.556Z,76.71
2023-05-24T17:35:44.390Z,77.19
2023-05-24T17:38:17.270Z,77.03
2023-05-24T17:40:56.029Z,76.94
2023-05-24T17:43:32.117Z,76.63
2023-05-24T17:46:07.723Z,78.00
2023-05-24T17:48:41.195Z,77.80
2023-05-24T17:51:14.623Z,77.28
2023-05-24T17:53:47.974Z,77.97
2023-05-24T17:56:22.474Z,77.43
2023-05-24T17:58:55.708Z,77.04
2023-05-24T18:01:30.196Z,76.43
2023-05-24T18:04:03.260Z,77.85
2023-05-24T18:06:37.852Z,76.88
2023-05-24T18:09:11.479Z,77.32
2023-05-24T18:11:44.197Z,77.31
2023-05-24T18:14:17.209Z,76.87
2023-05-24T18:16:51.506Z,76.76
2023-05-24T18:19:26.193Z,75.28
2023-05-24T18:21:59.215Z,75.48
2023-05-24T18:24:31.932Z,77.27
2023-05-24T18:27:05.227Z,76.08
2023-05-24T18:29:38.637Z,76.44
2023-05-24T18:32:12.825Z,77.16
2023-05-24T18:34:45.746Z,76.58
2023-05-24T18:37:19.863Z,76.27
2023-05-24T18:39:52.609Z,75.67
2023-05-24T18:42:25.468Z,75.35
2023-05-24T18:44:58.232Z,75.69
2023-05-24T18:47:32.363Z,75.03
2023-05-24T18:50:05.265Z,75.95
2023-05-24T18:52:37.960Z,74.67
2023-05-24T18:55:11.573Z,76.11
2023-05-24T18:57:44.298Z,76.06
2023-05-24T19:00:19.332Z,77.48
2023-05-24T19:02:55.479Z,77.89
2023-05-24T19:05:28.382Z,76.90
2023-05-24T19:08:01.170Z,78.25
2023-05-24T19:10:33.918Z,78.69
2023-05-24T19:13:07.369Z,78.47
2023-05-24T19:15:40.045Z,78.71
2023-05-24T19:18:14.106Z,78.24
2023-05-24T19:20:46.801Z,79.14
2023-05-24T19:23:19.671Z,79.04
2023-05-24T19:25:52.557Z,78.16
2023-05-24T19:28:25.370Z,78.68
2023-05-24T19:31:01.207Z,78.16
2023-05-24T19:33:40.494Z,78.74
2023-05-24T19:36:20.022Z,78.57
2023-05-24T19:38:53.390Z,78.84
2023-05-24T19:41:26.843Z,78.21
2023-05-24T19:43:59.633Z,77.74
2023-05-24T19:46:32.691Z,78.29
2023-05-24T19:49:07.253Z,78.78
2023-05-24T19:51:40.047Z,78.36
2023-05-24T19:54:13.675Z,78.56
2023-05-24T19:56:50.206Z,78.13
2023-05-24T19:59:22.976Z,77.01
2023-05-24T20:01:55.703Z,76.81
2023-05-24T20:04:30.040Z,76.72
2023-05-24T20:07:02.860Z,79.22
2023-05-24T20:09:35.804Z,74.88
2023-05-24T20:12:08.902Z,77.97
2023-05-24T20:14:41.953Z,78.16
2023-05-24T20:17:14.658Z,77.14
2023-05-24T20:19:49.547Z,77.67
2023-05-24T20:22:22.365Z,77.23
2023-05-24T20:24:55.061Z,77.74
2023-05-24T20:27:27.754Z,77.71
2023-05-24T20:30:00.503Z,77.68
2023-05-24T20:32:33.223Z,77.69
2023-05-24T20:35:08.221Z,78.66
2023-05-24T20:37:42.013Z,78.57
2023-05-24T20:40:19.266Z,79.51
2023-05-24T20:42:52.150Z,79.14
2023-05-24T20:45:25.004Z,79.58
2023-05-24T20:47:58.920Z,79.40
2023-05-24T20:50:33.238Z,79.09
2023-05-24T20:53:05.977Z,77.65
2023-05-24T20:55:38.746Z,77.96
2023-05-24T20:58:11.557Z,78.06
2023-05-24T21:00:44.342Z,78.17
2023-05-24T21:03:17.160Z,77.84
2023-05-24T21:05:51.698Z,77.51
2023-05-24T21:08:24.348Z,77.89
2023-05-24T21:10:57.123Z,77.96
2023-05-24T21:13:30.364Z,78.25
2023-05-24T21:16:03.311Z,78.39
2023-05-24T21:18:36.073Z,77.82
2023-05-24T21:21:11.097Z,77.44
2023-05-24T21:23:43.820Z,77.77
2023-05-24T21:26:17.037Z,77.53
2023-05-24T21:28:49.767Z,75.72
2023-05-24T21:31:23.241Z,76.79
2023-05-24T21:33:56.090Z,76.63
2023-05-24T21:36:30.172Z,76.90
2023-05-24T21:39:07.567Z,76.91
2023-05-24T21:41:40.309Z,77.09
2023-05-24T21:44:13.017Z,77.61
2023-05-24T21:46:45.742Z,77.23
2023-05-24T21:49:19.019Z,77.55
2023-05-24T21:51:53.147Z,77.00
2023-05-24T21:54:25.886Z,77.22
2023-05-24T21:56:58.624Z,76.36
2023-05-24T21:59:31.393Z,75.83
2023-05-24T22:02:04.162Z,76.73
2023-05-24T22:04:36.924Z,77.10
2023-05-24T22:07:11.075Z,76.80
2023-05-24T22:09:43.792Z,76.26
2023-05-24T22:12:16.572Z,77.13
2023-05-24T22:14:49.356Z,76.38
2023-05-24T22:17:23.140Z,76.35
2023-05-24T22:19:56.141Z,76.09
2023-05-24T22:22:30.252Z,76.12
2023-05-24T22:25:03.038Z,76.08
2023-05-24T22:27:37.088Z,76.48
2023-05-24T22:30:10.100Z,77.48
2023-05-24T22:32:43.073Z,76.21
2023-05-24T22:35:15.979Z,76.50
2023-05-24T22:37:50.092Z,75.92
2023-05-24T22:40:22.879Z,76.47
2023-05-24T22:42:55.643Z,76.35
2023-05-24T22:45:28.437Z,76.45
2023-05-24T22:48:01.239Z,76.36
2023-05-24T22:50:33.998Z,76.17
2023-05-24T22:53:09.336Z,75.62
2023-05-24T22:55:42.195Z,76.57
2023-05-24T22:58:15.651Z,76.47
2023-05-24T23:00:48.405Z,75.75
2023-05-24T23:03:22.003Z,76.00
2023-05-24T23:05:54.747Z,76.79
2023-05-24T23:08:28.883Z,76.20
2023-05-24T23:11:01.606Z,76.14
2023-05-24T23:13:35.960Z,75.86
2023-05-24T23:16:09.688Z,75.79
2023-05-24T23:18:43.126Z,76.39
2023-05-24T23:21:16.782Z,76.41
2023-05-24T23:23:50.938Z,75.58
2023-05-24T23:26:23.655Z,76.24
2023-05-24T23:28:56.791Z,76.22
2023-05-24T23:31:29.577Z,75.78
2023-05-24T23:34:02.534Z,75.92
2023-05-24T23:36:35.227Z,74.55
2023-05-24T23:39:11.050Z,75.69
2023-05-24T23:41:43.886Z,74.89
2023-05-24T23:44:16.632Z,75.28
2023-05-24T23:46:49.395Z,74.93
2023-05-24T23:49:22.457Z,74.65
2023-05-24T23:51:55.145Z,75.30
2023-05-24T23:54:29.407Z,75.74
2023-05-24T23:57:03.964Z,75.88
2023-05-24T23:59:36.765Z,75.29
